sensor_id;sensor_type;location;lat;lon;timestamp;temperature;humidity
53152;DHT22;39234;53.158;6.322;2022-07-10T00:00:17;15.90;99.90
53152;DHT22;39234;53.158;6.322;2022-07-10T00:02:46;13.70;99.90
53152;DHT22;39234;53.158;6.322;2022-07-10T00:05:13;14.60;99.90
53152;DHT22;39234;53.158;6.322;2022-07-10T00:07:41;14.30;99.90
53152;DHT22;39234;53.158;6.322;2022-07-10T00:10:07;14.90;99.90
53152;DHT22;39234;53.158;6.322;2022-07-10T00:12:33;13.60;99.90
53152;DHT22;39234;53.158;6.322;2022-07-10T00:14:58;13.60;99.90
53152;DHT22;39234;53.158;6.322;2022-07-10T00:17:25;13.70;99.90
53152;DHT22;39234;53.158;6.322;2022-07-10T00:19:50;13.60;99.90
53152;DHT22;39234;53.158;6.322;2022-07-10T00:22:18;13.60;99.90
53152;DHT22;39234;53.158;6.322;2022-07-10T00:24:44;14.10;99.90
53152;DHT22;39234;53.158;6.322;2022-07-10T00:27:09;15.40;99.90
53152;DHT22;39234;53.158;6.322;2022-07-10T00:29:37;13.60;99.90
53152;DHT22;39234;53.158;6.322;2022-07-10T00:32:04;14.80;99.90
53152;DHT22;39234;53.158;6.322;2022-07-10T00:34:30;13.40;99.90
53152;DHT22;39234;53.158;6.322;2022-07-10T00:36:57;13.50;99.90
53152;DHT22;39234;53.158;6.322;2022-07-10T00:39:23;13.40;99.90
53152;DHT22;39234;53.158;6.322;2022-07-10T00:41:49;13.30;99.90
53152;DHT22;39234;53.158;6.322;2022-07-10T00:44:15;13.40;99.90
53152;DHT22;39234;53.158;6.322;2022-07-10T00:46:42;14.60;99.90
53152;DHT22;39234;53.158;6.322;2022-07-10T00:49:08;14.30;99.90
53152;DHT22;39234;53.158;6.322;2022-07-10T00:51:33;13.50;99.90
53152;DHT22;39234;53.158;6.322;2022-07-10T00:54:00;13.30;99.90
53152;DHT22;39234;53.158;6.322;2022-07-10T00:56:28;14.50;99.90
53152;DHT22;39234;53.158;6.322;2022-07-10T00:58:54;14.10;99.90
53152;DHT22;39234;53.158;6.322;2022-07-10T01:01:20;14.70;99.90
53152;DHT22;39234;53.158;6.322;2022-07-10T01:03:50;13.90;99.90
53152;DHT22;39234;53.158;6.322;2022-07-10T01:06:16;13.30;99.90
53152;DHT22;39234;53.158;6.322;2022-07-10T01:08:43;13.40;99.90
53152;DHT22;39234;53.158;6.322;2022-07-10T01:11:11;13.30;99.90
53152;DHT22;39234;53.158;6.322;2022-07-10T01:13:37;13.30;99.90
53152;DHT22;39234;53.158;6.322;2022-07-10T01:16:04;13.90;99.90
53152;DHT22;39234;53.158;6.322;2022-07-10T01:18:30;13.30;99.90
53152;DHT22;39234;53.158;6.322;2022-07-10T01:20:56;14.40;99.90
53152;DHT22;39234;53.158;6.322;2022-07-10T01:23:22;13.20;99.90
53152;DHT22;39234;53.158;6.322;2022-07-10T01:25:50;13.20;99.90
53152;DHT22;39234;53.158;6.322;2022-07-10T01:28:16;13.80;99.90
53152;DHT22;39234;53.158;6.322;2022-07-10T01:30:42;13.40;99.90
53152;DHT22;39234;53.158;6.322;2022-07-10T01:33:08;13.70;99.90
53152;DHT22;39234;53.158;6.322;2022-07-10T01:35:33;13.10;99.90
53152;DHT22;39234;53.158;6.322;2022-07-10T01:38:01;14.00;99.90
53152;DHT22;39234;53.158;6.322;2022-07-10T01:40:27;12.90;99.90
53152;DHT22;39234;53.158;6.322;2022-07-10T01:42:53;13.00;99.90
53152;DHT22;39234;53.158;6.322;2022-07-10T01:45:21;12.90;99.90
53152;DHT22;39234;53.158;6.322;2022-07-10T01:47:46;13.00;99.90
53152;DHT22;39234;53.158;6.322;2022-07-10T01:50:12;12.90;99.90
53152;DHT22;39234;53.158;6.322;2022-07-10T01:52:38;12.80;99.90
53152;DHT22;39234;53.158;6.322;2022-07-10T01:55:04;12.90;99.90
53152;DHT22;39234;53.158;6.322;2022-07-10T01:57:30;12.90;99.90
53152;DHT22;39234;53.158;6.322;2022-07-10T01:59:56;13.30;99.90
53152;DHT22;39234;53.158;6.322;2022-07-10T02:02:22;14.00;99.90
53152;DHT22;39234;53.158;6.322;2022-07-10T02:04:48;12.70;99.90
53152;DHT22;39234;53.158;6.322;2022-07-10T02:07:15;12.80;99.90
53152;DHT22;39234;53.158;6.322;2022-07-10T02:09:41;13.00;99.90
53152;DHT22;39234;53.158;6.322;2022-07-10T02:12:08;12.70;99.90
53152;DHT22;39234;53.158;6.322;2022-07-10T02:14:37;12.80;99.90
53152;DHT22;39234;53.158;6.322;2022-07-10T02:17:04;13.10;99.90
53152;DHT22;39234;53.158;6.322;2022-07-10T02:19:31;12.70;99.90
53152;DHT22;39234;53.158;6.322;2022-07-10T02:21:58;12.60;99.90
53152;DHT22;39234;53.158;6.322;2022-07-10T02:24:23;12.70;99.90
53152;DHT22;39234;53.158;6.322;2022-07-10T02:26:49;12.70;99.90
53152;DHT22;39234;53.158;6.322;2022-07-10T02:29:15;13.00;99.90
53152;DHT22;39234;53.158;6.322;2022-07-10T02:31:41;12.80;99.90
53152;DHT22;39234;53.158;6.322;2022-07-10T02:34:11;12.60;99.90
53152;DHT22;39234;53.158;6.322;2022-07-10T02:36:38;12.90;99.90
53152;DHT22;39234;53.158;6.322;2022-07-10T02:39:04;13.80;99.90
53152;DHT22;39234;53.158;6.322;2022-07-10T02:41:31;13.00;99.90
53152;DHT22;39234;53.158;6.322;2022-07-10T02:43:57;12.90;99.90
53152;DHT22;39234;53.158;6.322;2022-07-10T02:46:23;12.90;99.90
53152;DHT22;39234;53.158;6.322;2022-07-10T02:48:48;13.00;99.90
53152;DHT22;39234;53.158;6.322;2022-07-10T02:51:14;12.90;99.90
53152;DHT22;39234;53.158;6.322;2022-07-10T02:53:40;13.00;99.90
53152;DHT22;39234;53.158;6.322;2022-07-10T02:56:06;13.20;99.90
53152;DHT22;39234;53.158;6.322;2022-07-10T02:58:34;13.10;99.90
53152;DHT22;39234;53.158;6.322;2022-07-10T03:01:00;13.30;99.90
53152;DHT22;39234;53.158;6.322;2022-07-10T03:03:25;14.00;99.90
53152;DHT22;39234;53.158;6.322;2022-07-10T03:05:53;15.20;99.90
53152;DHT22;39234;53.158;6.322;2022-07-10T03:08:19;13.30;99.90
53152;DHT22;39234;53.158;6.322;2022-07-10T03:10:44;13.20;99.90
53152;DHT22;39234;53.158;6.322;2022-07-10T03:13:10;13.30;99.90
53152;DHT22;39234;53.158;6.322;2022-07-10T03:15:38;13.60;99.90
53152;DHT22;39234;53.158;6.322;2022-07-10T03:18:03;13.40;99.90
53152;DHT22;39234;53.158;6.322;2022-07-10T03:20:29;13.50;99.90
53152;DHT22;39234;53.158;6.322;2022-07-10T03:22:56;13.30;99.90
53152;DHT22;39234;53.158;6.322;2022-07-10T03:25:22;13.40;99.90
53152;DHT22;39234;53.158;6.322;2022-07-10T03:27:47;15.40;99.90
53152;DHT22;39234;53.158;6.322;2022-07-10T03:30:13;13.60;99.90
53152;DHT22;39234;53.158;6.322;2022-07-10T03:32:39;13.70;99.90
53152;DHT22;39234;53.158;6.322;2022-07-10T03:35:05;13.80;99.90
53152;DHT22;39234;53.158;6.322;2022-07-10T03:37:30;13.90;99.90
53152;DHT22;39234;53.158;6.322;2022-07-10T03:39:56;14.10;99.90
53152;DHT22;39234;53.158;6.322;2022-07-10T03:42:22;14.20;99.90
53152;DHT22;39234;53.158;6.322;2022-07-10T03:44:47;14.10;99.90
53152;DHT22;39234;53.158;6.322;2022-07-10T03:47:15;14.90;99.90
53152;DHT22;39234;53.158;6.322;2022-07-10T03:49:41;14.60;99.90
53152;DHT22;39234;53.158;6.322;2022-07-10T03:52:07;14.00;99.90
53152;DHT22;39234;53.158;6.322;2022-07-10T03:54:33;14.00;99.90
53152;DHT22;39234;53.158;6.322;2022-07-10T03:56:59;14.10;99.90
53152;DHT22;39234;53.158;6.322;2022-07-10T03:59:43;13.80;99.90
53152;DHT22;39234;53.158;6.322;2022-07-10T04:02:09;14.10;99.90
53152;DHT22;39234;53.158;6.322;2022-07-10T04:04:35;13.90;99.90
53152;DHT22;39234;53.158;6.322;2022-07-10T04:07:01;14.10;99.90
53152;DHT22;39234;53.158;6.322;2022-07-10T04:09:26;15.10;99.90
53152;DHT22;39234;53.158;6.322;2022-07-10T04:11:52;14.20;99.90
53152;DHT22;39234;53.158;6.322;2022-07-10T04:14:18;14.20;99.90
53152;DHT22;39234;53.158;6.322;2022-07-10T04:16:43;14.20;99.90
53152;DHT22;39234;53.158;6.322;2022-07-10T04:19:11;14.50;99.90
53152;DHT22;39234;53.158;6.322;2022-07-10T04:21:37;15.20;99.90
53152;DHT22;39234;53.158;6.322;2022-07-10T04:24:03;14.30;99.90
53152;DHT22;39234;53.158;6.322;2022-07-10T04:26:29;14.20;99.90
53152;DHT22;39234;53.158;6.322;2022-07-10T04:28:55;14.80;99.90
53152;DHT22;39234;53.158;6.322;2022-07-10T04:31:21;14.60;99.90
53152;DHT22;39234;53.158;6.322;2022-07-10T04:33:46;15.40;99.90
53152;DHT22;39234;53.158;6.322;2022-07-10T04:36:12;14.50;99.90
53152;DHT22;39234;53.158;6.322;2022-07-10T04:38:38;14.40;99.90
53152;DHT22;39234;53.158;6.322;2022-07-10T04:41:03;16.60;99.90
53152;DHT22;39234;53.158;6.322;2022-07-10T04:43:31;14.50;99.90
53152;DHT22;39234;53.158;6.322;2022-07-10T04:45:57;14.40;99.90
53152;DHT22;39234;53.158;6.322;2022-07-10T04:48:23;14.40;99.90
53152;DHT22;39234;53.158;6.322;2022-07-10T04:50:48;15.80;99.90
53152;DHT22;39234;53.158;6.322;2022-07-10T04:53:16;14.50;99.90
53152;DHT22;39234;53.158;6.322;2022-07-10T04:55:42;14.70;99.90
53152;DHT22;39234;53.158;6.322;2022-07-10T04:58:08;15.20;99.90
53152;DHT22;39234;53.158;6.322;2022-07-10T05:00:34;14.40;99.90
53152;DHT22;39234;53.158;6.322;2022-07-10T05:03:00;16.00;99.90
53152;DHT22;39234;53.158;6.322;2022-07-10T05:05:26;14.50;99.90
53152;DHT22;39234;53.158;6.322;2022-07-10T05:07:51;14.50;99.90
53152;DHT22;39234;53.158;6.322;2022-07-10T05:10:17;14.50;99.90
53152;DHT22;39234;53.158;6.322;2022-07-10T05:12:43;14.40;99.90
53152;DHT22;39234;53.158;6.322;2022-07-10T05:15:09;15.30;99.90
53152;DHT22;39234;53.158;6.322;2022-07-10T05:17:37;14.50;99.90
53152;DHT22;39234;53.158;6.322;2022-07-10T05:20:02;14.50;99.90
53152;DHT22;39234;53.158;6.322;2022-07-10T05:22:29;14.80;99.90
53152;DHT22;39234;53.158;6.322;2022-07-10T05:24:57;14.60;99.90
53152;DHT22;39234;53.158;6.322;2022-07-10T05:27:23;15.00;99.90
53152;DHT22;39234;53.158;6.322;2022-07-10T05:29:50;14.60;99.90
53152;DHT22;39234;53.158;6.322;2022-07-10T05:32:17;14.60;99.90
53152;DHT22;39234;53.158;6.322;2022-07-10T05:34:43;15.90;99.90
53152;DHT22;39234;53.158;6.322;2022-07-10T05:37:08;14.80;99.90
53152;DHT22;39234;53.158;6.322;2022-07-10T05:39:36;14.70;99.90
53152;DHT22;39234;53.158;6.322;2022-07-10T05:42:02;14.80;99.90
53152;DHT22;39234;53.158;6.322;2022-07-10T05:44:28;14.80;99.90
53152;DHT22;39234;53.158;6.322;2022-07-10T05:46:54;14.70;99.90
53152;DHT22;39234;53.158;6.322;2022-07-10T05:49:19;15.50;99.90
53152;DHT22;39234;53.158;6.322;2022-07-10T05:51:45;14.80;99.90
53152;DHT22;39234;53.158;6.322;2022-07-10T05:54:11;15.40;99.90
53152;DHT22;39234;53.158;6.322;2022-07-10T05:56:37;14.70;99.90
53152;DHT22;39234;53.158;6.322;2022-07-10T05:59:02;14.90;99.90
53152;DHT22;39234;53.158;6.322;2022-07-10T06:01:28;14.80;99.90
53152;DHT22;39234;53.158;6.322;2022-07-10T06:03:55;15.70;99.90
53152;DHT22;39234;53.158;6.322;2022-07-10T06:06:23;15.60;99.90
53152;DHT22;39234;53.158;6.322;2022-07-10T06:08:49;15.80;99.90
53152;DHT22;39234;53.158;6.322;2022-07-10T06:11:14;15.00;99.90
53152;DHT22;39234;53.158;6.322;2022-07-10T06:13:43;14.80;99.90
53152;DHT22;39234;53.158;6.322;2022-07-10T06:16:09;15.70;99.90
53152;DHT22;39234;53.158;6.322;2022-07-10T06:18:34;16.60;99.90
53152;DHT22;39234;53.158;6.322;2022-07-10T06:21:00;14.90;99.90
53152;DHT22;39234;53.158;6.322;2022-07-10T06:23:26;15.00;99.90
53152;DHT22;39234;53.158;6.322;2022-07-10T06:25:52;16.90;99.90
53152;DHT22;39234;53.158;6.322;2022-07-10T06:28:18;16.10;99.90
53152;DHT22;39234;53.158;6.322;2022-07-10T06:30:44;15.70;99.90
53152;DHT22;39234;53.158;6.322;2022-07-10T06:33:11;15.00;99.90
53152;DHT22;39234;53.158;6.322;2022-07-10T06:35:39;15.20;99.90
53152;DHT22;39234;53.158;6.322;2022-07-10T06:38:05;15.40;99.90
53152;DHT22;39234;53.158;6.322;2022-07-10T06:40:35;15.20;99.90
53152;DHT22;39234;53.158;6.322;2022-07-10T06:43:01;16.20;99.90
53152;DHT22;39234;53.158;6.322;2022-07-10T06:45:27;16.40;99.90
53152;DHT22;39234;53.158;6.322;2022-07-10T06:47:52;15.60;99.90
53152;DHT22;39234;53.158;6.322;2022-07-10T06:50:23;15.60;99.90
53152;DHT22;39234;53.158;6.322;2022-07-10T06:52:50;15.50;99.90
53152;DHT22;39234;53.158;6.322;2022-07-10T06:55:17;15.20;99.90
53152;DHT22;39234;53.158;6.322;2022-07-10T06:57:45;14.50;99.90
53152;DHT22;39234;53.158;6.322;2022-07-10T07:00:11;15.20;99.90
53152;DHT22;39234;53.158;6.322;2022-07-10T07:02:37;15.30;99.90
53152;DHT22;39234;53.158;6.322;2022-07-10T07:05:03;16.00;99.90
53152;DHT22;39234;53.158;6.322;2022-07-10T07:07:29;15.10;99.90
53152;DHT22;39234;53.158;6.322;2022-07-10T07:09:56;15.30;99.90
53152;DHT22;39234;53.158;6.322;2022-07-10T07:12:22;15.30;99.90
53152;DHT22;39234;53.158;6.322;2022-07-10T07:14:47;14.60;99.90
53152;DHT22;39234;53.158;6.322;2022-07-10T07:17:15;15.50;99.90
53152;DHT22;39234;53.158;6.322;2022-07-10T07:19:48;15.40;99.90
53152;DHT22;39234;53.158;6.322;2022-07-10T07:22:32;15.70;99.90
53152;DHT22;39234;53.158;6.322;2022-07-10T07:25:16;15.80;99.90
53152;DHT22;39234;53.158;6.322;2022-07-10T07:27:42;17.80;99.90
53152;DHT22;39234;53.158;6.322;2022-07-10T07:30:10;16.00;99.90
53152;DHT22;39234;53.158;6.322;2022-07-10T07:32:38;15.90;99.90
53152;DHT22;39234;53.158;6.322;2022-07-10T07:35:05;16.70;99.90
53152;DHT22;39234;53.158;6.322;2022-07-10T07:37:45;15.70;99.90
53152;DHT22;39234;53.158;6.322;2022-07-10T07:40:13;17.80;99.90
53152;DHT22;39234;53.158;6.322;2022-07-10T07:42:39;17.30;99.90
53152;DHT22;39234;53.158;6.322;2022-07-10T07:45:08;13.80;99.90
53152;DHT22;39234;53.158;6.322;2022-07-10T07:47:45;15.50;99.90
53152;DHT22;39234;53.158;6.322;2022-07-10T07:50:13;15.50;99.90
53152;DHT22;39234;53.158;6.322;2022-07-10T07:52:39;15.30;99.90
53152;DHT22;39234;53.158;6.322;2022-07-10T07:55:05;15.60;99.90
53152;DHT22;39234;53.158;6.322;2022-07-10T07:57:33;15.50;99.90
53152;DHT22;39234;53.158;6.322;2022-07-10T07:59:59;16.80;99.90
53152;DHT22;39234;53.158;6.322;2022-07-10T08:02:25;15.60;99.90
53152;DHT22;39234;53.158;6.322;2022-07-10T08:04:52;16.10;99.90
53152;DHT22;39234;53.158;6.322;2022-07-10T08:07:18;15.30;99.90
53152;DHT22;39234;53.158;6.322;2022-07-10T08:09:43;15.40;99.90
53152;DHT22;39234;53.158;6.322;2022-07-10T08:12:10;15.30;99.90
53152;DHT22;39234;53.158;6.322;2022-07-10T08:14:35;16.30;99.90
53152;DHT22;39234;53.158;6.322;2022-07-10T08:17:01;15.30;99.90
53152;DHT22;39234;53.158;6.322;2022-07-10T08:19:27;15.20;99.90
53152;DHT22;39234;53.158;6.322;2022-07-10T08:21:53;15.20;99.90
53152;DHT22;39234;53.158;6.322;2022-07-10T08:24:18;15.10;99.90
53152;DHT22;39234;53.158;6.322;2022-07-10T08:26:46;15.20;99.90
53152;DHT22;39234;53.158;6.322;2022-07-10T08:29:12;15.00;99.90
53152;DHT22;39234;53.158;6.322;2022-07-10T08:31:37;15.00;99.90
53152;DHT22;39234;53.158;6.322;2022-07-10T08:34:07;15.00;99.90
53152;DHT22;39234;53.158;6.322;2022-07-10T08:36:32;16.20;99.90
53152;DHT22;39234;53.158;6.322;2022-07-10T08:38:58;15.20;99.90
53152;DHT22;39234;53.158;6.322;2022-07-10T08:41:29;14.90;99.90
53152;DHT22;39234;53.158;6.322;2022-07-10T08:43:56;15.10;99.90
53152;DHT22;39234;53.158;6.322;2022-07-10T08:46:23;16.00;99.90
53152;DHT22;39234;53.158;6.322;2022-07-10T08:48:52;15.60;99.90
53152;DHT22;39234;53.158;6.322;2022-07-10T08:51:28;16.00;99.90
53152;DHT22;39234;53.158;6.322;2022-07-10T08:53:57;15.10;99.90
53152;DHT22;39234;53.158;6.322;2022-07-10T08:56:26;16.80;99.90
53152;DHT22;39234;53.158;6.322;2022-07-10T08:58:52;13.40;99.90
53152;DHT22;39234;53.158;6.322;2022-07-10T09:01:18;15.00;99.90
53152;DHT22;39234;53.158;6.322;2022-07-10T09:03:51;16.40;99.90
53152;DHT22;39234;53.158;6.322;2022-07-10T09:06:18;15.10;99.90
53152;DHT22;39234;53.158;6.322;2022-07-10T09:09:03;15.50;99.90
53152;DHT22;39234;53.158;6.322;2022-07-10T09:11:31;15.10;99.90
53152;DHT22;39234;53.158;6.322;2022-07-10T09:14:03;15.40;99.90
53152;DHT22;39234;53.158;6.322;2022-07-10T09:16:34;15.20;99.90
53152;DHT22;39234;53.158;6.322;2022-07-10T09:19:27;17.60;99.90
53152;DHT22;39234;53.158;6.322;2022-07-10T09:21:54;15.20;99.90
53152;DHT22;39234;53.158;6.322;2022-07-10T09:24:21;15.40;99.90
53152;DHT22;39234;53.158;6.322;2022-07-10T09:27:00;15.40;99.90
53152;DHT22;39234;53.158;6.322;2022-07-10T09:29:29;15.50;99.90
53152;DHT22;39234;53.158;6.322;2022-07-10T09:32:03;15.60;99.90
53152;DHT22;39234;53.158;6.322;2022-07-10T09:37:21;15.70;99.90
53152;DHT22;39234;53.158;6.322;2022-07-10T09:39:59;15.70;99.90
53152;DHT22;39234;53.158;6.322;2022-07-10T09:53:01;16.00;99.90
53152;DHT22;39234;53.158;6.322;2022-07-10T09:55:32;15.90;99.90
53152;DHT22;39234;53.158;6.322;2022-07-10T09:58:05;17.10;99.90
53152;DHT22;39234;53.158;6.322;2022-07-10T10:00:33;17.90;99.90
53152;DHT22;39234;53.158;6.322;2022-07-10T10:03:04;16.30;99.90
53152;DHT22;39234;53.158;6.322;2022-07-10T10:05:43;16.70;99.90
53152;DHT22;39234;53.158;6.322;2022-07-10T10:08:28;16.20;99.90
53152;DHT22;39234;53.158;6.322;2022-07-10T10:10:57;16.30;99.90
53152;DHT22;39234;53.158;6.322;2022-07-10T10:13:27;16.20;99.90
53152;DHT22;39234;53.158;6.322;2022-07-10T10:15:54;16.10;99.90
53152;DHT22;39234;53.158;6.322;2022-07-10T10:18:21;16.40;99.90
53152;DHT22;39234;53.158;6.322;2022-07-10T10:20:49;16.50;99.90
53152;DHT22;39234;53.158;6.322;2022-07-10T10:23:19;16.60;99.90
53152;DHT22;39234;53.158;6.322;2022-07-10T10:25:54;16.70;99.90
53152;DHT22;39234;53.158;6.322;2022-07-10T10:28:21;16.90;99.90
53152;DHT22;39234;53.158;6.322;2022-07-10T10:30:51;18.60;99.90
53152;DHT22;39234;53.158;6.322;2022-07-10T10:33:55;17.40;99.90
53152;DHT22;39234;53.158;6.322;2022-07-10T10:36:44;17.70;99.90
53152;DHT22;39234;53.158;6.322;2022-07-10T10:39:20;18.80;99.90
53152;DHT22;39234;53.158;6.322;2022-07-10T10:46:59;18.20;99.90
53152;DHT22;39234;53.158;6.322;2022-07-10T10:52:18;17.60;99.90
53152;DHT22;39234;53.158;6.322;2022-07-10T10:59:57;17.20;99.90
53152;DHT22;39234;53.158;6.322;2022-07-10T11:02:29;18.20;99.90
53152;DHT22;39234;53.158;6.322;2022-07-10T11:07:54;17.30;99.90
53152;DHT22;39234;53.158;6.322;2022-07-10T11:10:35;17.20;99.90
53152;DHT22;39234;53.158;6.322;2022-07-10T11:13:13;17.10;99.90
53152;DHT22;39234;53.158;6.322;2022-07-10T11:18:07;17.00;99.90
53152;DHT22;39234;53.158;6.322;2022-07-10T11:20:39;17.10;99.90
53152;DHT22;39234;53.158;6.322;2022-07-10T11:25:54;17.20;99.90
53152;DHT22;39234;53.158;6.322;2022-07-10T11:31:11;16.90;99.90
53152;DHT22;39234;53.158;6.322;2022-07-10T11:33:45;16.80;99.90
53152;DHT22;39234;53.158;6.322;2022-07-10T11:36:20;18.90;99.90
53152;DHT22;39234;53.158;6.322;2022-07-10T11:38:47;16.40;99.90
53152;DHT22;39234;53.158;6.322;2022-07-10T11:41:20;16.70;99.90
53152;DHT22;39234;53.158;6.322;2022-07-10T11:43:52;16.50;99.90
53152;DHT22;39234;53.158;6.322;2022-07-10T11:46:23;16.30;99.90
53152;DHT22;39234;53.158;6.322;2022-07-10T11:48:50;16.30;99.90
53152;DHT22;39234;53.158;6.322;2022-07-10T11:51:30;18.20;99.90
53152;DHT22;39234;53.158;6.322;2022-07-10T11:54:22;16.40;99.90
53152;DHT22;39234;53.158;6.322;2022-07-10T11:56:53;16.40;99.90
53152;DHT22;39234;53.158;6.322;2022-07-10T11:59:24;16.20;99.90
53152;DHT22;39234;53.158;6.322;2022-07-10T12:01:56;18.50;99.90
53152;DHT22;39234;53.158;6.322;2022-07-10T12:04:23;16.50;99.90
53152;DHT22;39234;53.158;6.322;2022-07-10T12:06:53;16.40;99.90
53152;DHT22;39234;53.158;6.322;2022-07-10T12:09:23;17.70;99.90
53152;DHT22;39234;53.158;6.322;2022-07-10T12:11:59;17.50;99.90
53152;DHT22;39234;53.158;6.322;2022-07-10T12:14:26;16.80;99.90
53152;DHT22;39234;53.158;6.322;2022-07-10T12:16:53;16.80;99.90
53152;DHT22;39234;53.158;6.322;2022-07-10T12:19:22;17.30;99.90
53152;DHT22;39234;53.158;6.322;2022-07-10T12:21:48;18.50;99.90
53152;DHT22;39234;53.158;6.322;2022-07-10T12:24:18;16.90;99.90
53152;DHT22;39234;53.158;6.322;2022-07-10T12:26:49;18.60;99.90
53152;DHT22;39234;53.158;6.322;2022-07-10T12:29:22;18.80;99.90
53152;DHT22;39234;53.158;6.322;2022-07-10T12:31:57;16.40;99.90
53152;DHT22;39234;53.158;6.322;2022-07-10T12:34:42;17.30;99.90
53152;DHT22;39234;53.158;6.322;2022-07-10T12:37:15;16.70;99.90
53152;DHT22;39234;53.158;6.322;2022-07-10T12:39:49;16.70;99.90
53152;DHT22;39234;53.158;6.322;2022-07-10T12:42:28;16.80;99.90
53152;DHT22;39234;53.158;6.322;2022-07-10T12:45:12;16.70;99.90
53152;DHT22;39234;53.158;6.322;2022-07-10T12:50:12;16.50;99.90
53152;DHT22;39234;53.158;6.322;2022-07-10T12:52:38;16.50;99.90
53152;DHT22;39234;53.158;6.322;2022-07-10T12:55:18;16.10;99.90
53152;DHT22;39234;53.158;6.322;2022-07-10T13:03:07;16.20;99.90
53152;DHT22;39234;53.158;6.322;2022-07-10T13:08:18;17.30;99.90
53152;DHT22;39234;53.158;6.322;2022-07-10T13:10:55;16.50;99.90
53152;DHT22;39234;53.158;6.322;2022-07-10T13:13:21;16.80;99.90
53152;DHT22;39234;53.158;6.322;2022-07-10T13:15:48;18.50;99.90
53152;DHT22;39234;53.158;6.322;2022-07-10T13:18:21;16.80;99.90
53152;DHT22;39234;53.158;6.322;2022-07-10T13:20:48;17.10;99.90
53152;DHT22;39234;53.158;6.322;2022-07-10T13:23:15;17.30;99.90
53152;DHT22;39234;53.158;6.322;2022-07-10T13:25:41;17.10;99.90
53152;DHT22;39234;53.158;6.322;2022-07-10T13:28:08;17.10;99.90
53152;DHT22;39234;53.158;6.322;2022-07-10T13:30:35;19.20;99.90
53152;DHT22;39234;53.158;6.322;2022-07-10T13:33:03;17.10;99.90
53152;DHT22;39234;53.158;6.322;2022-07-10T13:35:30;17.10;99.90
53152;DHT22;39234;53.158;6.322;2022-07-10T13:37:57;17.20;99.90
53152;DHT22;39234;53.158;6.322;2022-07-10T13:40:28;17.20;99.90
53152;DHT22;39234;53.158;6.322;2022-07-10T13:42:58;17.30;99.90
53152;DHT22;39234;53.158;6.322;2022-07-10T13:45:24;17.50;99.90
53152;DHT22;39234;53.158;6.322;2022-07-10T13:47:55;17.60;99.90
53152;DHT22;39234;53.158;6.322;2022-07-10T13:50:20;17.70;99.90
53152;DHT22;39234;53.158;6.322;2022-07-10T13:52:46;18.80;99.90
53152;DHT22;39234;53.158;6.322;2022-07-10T13:55:12;18.60;99.90
53152;DHT22;39234;53.158;6.322;2022-07-10T13:57:39;18.50;99.90
53152;DHT22;39234;53.158;6.322;2022-07-10T14:00:05;18.60;99.90
53152;DHT22;39234;53.158;6.322;2022-07-10T14:02:33;21.00;99.90
53152;DHT22;39234;53.158;6.322;2022-07-10T14:05:00;20.00;99.90
53152;DHT22;39234;53.158;6.322;2022-07-10T14:07:26;18.60;99.90
53152;DHT22;39234;53.158;6.322;2022-07-10T14:09:52;18.40;99.90
53152;DHT22;39234;53.158;6.322;2022-07-10T14:12:18;18.40;99.90
53152;DHT22;39234;53.158;6.322;2022-07-10T14:14:43;19.00;99.90
53152;DHT22;39234;53.158;6.322;2022-07-10T14:17:09;18.20;99.90
53152;DHT22;39234;53.158;6.322;2022-07-10T14:19:35;18.30;99.90
53152;DHT22;39234;53.158;6.322;2022-07-10T14:22:01;18.30;99.90
53152;DHT22;39234;53.158;6.322;2022-07-10T14:24:27;19.60;99.90
53152;DHT22;39234;53.158;6.322;2022-07-10T14:26:52;18.00;99.90
53152;DHT22;39234;53.158;6.322;2022-07-10T14:29:21;19.30;99.90
53152;DHT22;39234;53.158;6.322;2022-07-10T14:31:49;18.30;99.00
53152;DHT22;39234;53.158;6.322;2022-07-10T14:34:16;18.30;99.10
53152;DHT22;39234;53.158;6.322;2022-07-10T14:36:42;18.10;99.10
53152;DHT22;39234;53.158;6.322;2022-07-10T14:39:09;19.80;98.50
53152;DHT22;39234;53.158;6.322;2022-07-10T14:41:37;20.10;98.10
53152;DHT22;39234;53.158;6.322;2022-07-10T14:44:04;18.00;97.50
53152;DHT22;39234;53.158;6.322;2022-07-10T14:46:30;18.10;97.90
53152;DHT22;39234;53.158;6.322;2022-07-10T14:48:55;18.70;98.90
53152;DHT22;39234;53.158;6.322;2022-07-10T14:51:21;18.20;98.80
53152;DHT22;39234;53.158;6.322;2022-07-10T14:53:47;18.90;99.90
53152;DHT22;39234;53.158;6.322;2022-07-10T14:56:13;18.40;99.90
53152;DHT22;39234;53.158;6.322;2022-07-10T14:58:42;20.20;99.90
53152;DHT22;39234;53.158;6.322;2022-07-10T15:01:09;18.00;99.90
53152;DHT22;39234;53.158;6.322;2022-07-10T15:03:37;18.30;99.90
53152;DHT22;39234;53.158;6.322;2022-07-10T15:06:02;18.00;99.90
53152;DHT22;39234;53.158;6.322;2022-07-10T15:08:30;18.00;99.90
53152;DHT22;39234;53.158;6.322;2022-07-10T15:10:57;17.70;99.90
53152;DHT22;39234;53.158;6.322;2022-07-10T15:13:25;20.00;99.90
53152;DHT22;39234;53.158;6.322;2022-07-10T15:15:50;18.10;99.90
53152;DHT22;39234;53.158;6.322;2022-07-10T15:18:17;18.10;99.90
53152;DHT22;39234;53.158;6.322;2022-07-10T15:20:43;20.10;99.90
53152;DHT22;39234;53.158;6.322;2022-07-10T15:23:09;18.40;99.90
53152;DHT22;39234;53.158;6.322;2022-07-10T15:25:35;19.30;99.90
53152;DHT22;39234;53.158;6.322;2022-07-10T15:28:08;18.40;99.90
53152;DHT22;39234;53.158;6.322;2022-07-10T15:30:35;18.50;99.90
53152;DHT22;39234;53.158;6.322;2022-07-10T15:33:01;18.80;99.90
53152;DHT22;39234;53.158;6.322;2022-07-10T15:35:27;18.70;99.90
53152;DHT22;39234;53.158;6.322;2022-07-10T15:37:54;18.60;99.90
53152;DHT22;39234;53.158;6.322;2022-07-10T15:40:20;18.50;99.90
53152;DHT22;39234;53.158;6.322;2022-07-10T15:42:46;18.70;99.90
53152;DHT22;39234;53.158;6.322;2022-07-10T15:45:11;18.60;99.90
53152;DHT22;39234;53.158;6.322;2022-07-10T15:47:37;18.60;99.90
53152;DHT22;39234;53.158;6.322;2022-07-10T15:50:04;18.60;99.90
53152;DHT22;39234;53.158;6.322;2022-07-10T15:52:32;18.40;99.90
53152;DHT22;39234;53.158;6.322;2022-07-10T15:54:57;18.60;99.90
53152;DHT22;39234;53.158;6.322;2022-07-10T15:57:23;18.50;99.90
53152;DHT22;39234;53.158;6.322;2022-07-10T15:59:50;18.60;99.90
53152;DHT22;39234;53.158;6.322;2022-07-10T16:02:16;18.40;99.90
53152;DHT22;39234;53.158;6.322;2022-07-10T16:04:42;18.50;99.90
53152;DHT22;39234;53.158;6.322;2022-07-10T16:07:09;18.40;99.90
53152;DHT22;39234;53.158;6.322;2022-07-10T16:09:35;18.40;99.90
53152;DHT22;39234;53.158;6.322;2022-07-10T16:12:01;19.40;99.90
53152;DHT22;39234;53.158;6.322;2022-07-10T16:14:27;18.20;99.90
53152;DHT22;39234;53.158;6.322;2022-07-10T16:16:52;18.50;99.90
53152;DHT22;39234;53.158;6.322;2022-07-10T16:19:18;18.30;99.90
53152;DHT22;39234;53.158;6.322;2022-07-10T16:21:44;18.50;99.90